Terminal Aerodrome Forecast
Issued by NWS Pocatello, ID

Home | Current Version | Previous Version | Text Only | Print | Product List | Glossary On
Versions: 1 2 3 4 5 6 7 8 9 10 11 12 13 14 15 16 17 18 19 20 21 22 23 24
000
FTUS45 KPIH 122320
TAFPIH
TAF
KPIH 122320Z 1300/1324 VRB05KT P6SM BKN200
     FM130900 03004KT 6SM BR SCT002 OVC150
     FM131700 VRB05KT P6SM BKN150=

USA.gov is the U.S. government's official web portal to all federal, state and local government web resources and services.